Terminal Aerodrome Forecast
Issued by NWS Kansas City/Pleasant Hill, MO

Home | Current Version | Previous Version | Text Only | Print | Product List | Glossary On
Versions: 1 2 3 4 5 6 7 8 9 10 11 12
000
FTUS43 KEAX 241739
TAFMCI
TAF
KMCI 241739Z 2418/2518 VRB04KT P6SM BKN150
     FM242200 VRB04KT P6SM VCTS SCT050CB BKN120
      TEMPO 2500/2503 4SM -TSRA BKN035CB
     FM250900 03006KT P6SM BKN100
     FM251400 06007KT P6SM BKN200=

USA.gov is the U.S. government's official web portal to all federal, state and local government web resources and services.